createdAt,value
2023-01-12T09:51:56.292Z,84
2023-01-12T09:57:02.870Z,83
2023-01-12T10:02:08.771Z,83.5
2023-01-12T10:07:15.300Z,84.5
2023-01-12T10:12:21.866Z,84.5
2023-01-12T10:17:28.423Z,87
2023-01-12T10:22:34.996Z,90
2023-01-12T10:27:41.561Z,89
2023-01-12T10:32:48.148Z,90.5
2023-01-12T10:37:54.703Z,90.5
2023-01-12T10:43:01.275Z,93.5
2023-01-12T10:48:07.852Z,94
2023-01-12T10:53:14.417Z,95.5
2023-01-12T10:58:21.001Z,95.5
2023-01-12T11:03:27.551Z,95.5
2023-01-12T11:08:34.161Z,94
2023-01-12T11:13:40.702Z,93.5
2023-01-12T11:18:47.265Z,93.5
2023-01-12T11:23:53.842Z,92.5
2023-01-12T11:29:00.409Z,89
2023-01-12T11:34:07.009Z,90.5
2023-01-12T11:39:13.541Z,87.5
2023-01-12T11:44:20.155Z,89.5
2023-01-12T11:49:26.019Z,89.5
2023-01-12T11:54:31.851Z,88
2023-01-12T11:59:38.410Z,88.5
2023-01-12T12:04:45.000Z,88
2023-01-12T12:09:51.570Z,88.5
2023-01-12T12:14:58.195Z,89
2023-01-12T12:20:04.708Z,89
2023-01-12T12:30:17.862Z,87.5
2023-01-12T12:35:24.422Z,88
2023-01-12T12:40:30.980Z,86.5
2023-01-12T12:45:37.565Z,87.5
2023-01-12T12:50:44.217Z,87
2023-01-12T12:55:50.707Z,86.5
2023-01-12T13:00:56.543Z,87
2023-01-12T13:06:03.095Z,86
2023-01-12T13:16:16.327Z,87
2023-01-12T13:21:22.836Z,86.5
2023-01-12T13:26:29.423Z,86
2023-01-12T13:46:55.795Z,87
2023-01-12T13:52:02.243Z,87
2023-01-12T13:57:08.825Z,88
2023-01-12T14:02:15.379Z,87.5
2023-01-12T14:07:22.020Z,88
2023-01-12T14:12:28.570Z,86.5
2023-01-12T14:17:34.413Z,87.5
2023-01-12T14:22:40.267Z,87.5
2023-01-12T14:27:46.822Z,88
2023-01-12T14:32:53.486Z,87
2023-01-12T14:38:00.036Z,86.5
2023-01-12T14:43:06.644Z,88
2023-01-12T14:48:13.131Z,87.5
2023-01-12T14:53:19.804Z,88
2023-01-12T14:58:26.250Z,87.5
2023-01-12T15:03:32.824Z,87.5
2023-01-12T15:08:39.456Z,87.5
2023-01-12T15:13:45.949Z,86.5
2023-01-12T15:18:51.833Z,87.5
2023-01-12T15:23:57.698Z,88.5
2023-01-12T15:29:04.362Z,89.5
2023-01-12T15:34:10.819Z,89.5
2023-01-12T15:39:17.407Z,89
2023-01-12T15:44:23.971Z,89.5
2023-01-12T15:49:30.591Z,89.5
2023-01-12T15:54:37.174Z,89.5
2023-01-12T15:59:43.709Z,89.5
2023-01-12T16:04:50.278Z,90
2023-01-12T16:09:56.880Z,90
2023-01-12T16:15:03.516Z,89.5
2023-01-12T16:20:10.073Z,91
2023-01-12T16:25:16.630Z,90.5
2023-01-12T16:30:22.400Z,90.5
2023-01-12T16:35:29.035Z,90
2023-01-12T16:40:35.573Z,90
2023-01-12T16:45:42.175Z,89.5
2023-01-12T16:50:48.702Z,90
2023-01-12T16:55:55.271Z,89.5
2023-01-12T17:01:01.833Z,90.5
2023-01-12T17:06:08.420Z,90
2023-01-12T17:11:14.969Z,90
2023-01-12T17:16:21.546Z,90
2023-01-12T17:21:28.104Z,90
2023-01-12T17:26:34.696Z,90.5
2023-01-12T17:31:41.253Z,90
2023-01-12T17:36:47.100Z,90.5
2023-01-12T17:41:53.662Z,90
2023-01-12T17:47:00.237Z,89.5
2023-01-12T17:52:06.802Z,89.5
